sensor_id;sensor_type;location;lat;lon;timestamp;noise_LAeq;noise_LA_min;noise_LA_max;noise_LA01;noise_LA95
186;Laerm;55473;48.800;9.002;2023-05-07T00:01:58;42.66;37.24;52.76;;
186;Laerm;55473;48.800;9.002;2023-05-07T00:04:24;42.56;37.21;52.70;;
186;Laerm;55473;48.800;9.002;2023-05-07T00:06:50;42.38;36.91;54.61;;
186;Laerm;55473;48.800;9.002;2023-05-07T00:09:16;42.36;37.16;53.65;;
186;Laerm;55473;48.800;9.002;2023-05-07T00:11:42;42.59;36.66;50.70;;
186;Laerm;55473;48.800;9.002;2023-05-07T00:14:08;42.45;36.83;52.25;;
186;Laerm;55473;48.800;9.002;2023-05-07T00:16:34;42.79;37.58;55.02;;
186;Laerm;55473;48.800;9.002;2023-05-07T00:19:00;46.36;37.09;60.52;;
186;Laerm;55473;48.800;9.002;2023-05-07T00:21:26;42.97;37.58;54.78;;
186;Laerm;55473;48.800;9.002;2023-05-07T00:23:53;42.92;36.20;55.58;;
186;Laerm;55473;48.800;9.002;2023-05-07T00:26:19;42.52;37.17;51.36;;
186;Laerm;55473;48.800;9.002;2023-05-07T00:28:46;42.62;36.97;51.98;;
186;Laerm;55473;48.800;9.002;2023-05-07T00:31:12;42.28;37.01;53.58;;
186;Laerm;55473;48.800;9.002;2023-05-07T00:33:38;42.35;35.73;56.15;;
186;Laerm;55473;48.800;9.002;2023-05-07T00:36:05;42.36;36.42;52.29;;
186;Laerm;55473;48.800;9.002;2023-05-07T00:38:31;42.39;36.15;55.94;;
186;Laerm;55473;48.800;9.002;2023-05-07T00:40:57;42.35;35.78;51.15;;
186;Laerm;55473;48.800;9.002;2023-05-07T00:43:23;43.92;37.34;56.08;;
186;Laerm;55473;48.800;9.002;2023-05-07T00:45:49;43.93;36.53;56.49;;
186;Laerm;55473;48.800;9.002;2023-05-07T00:48:16;43.47;37.41;53.30;;
186;Laerm;55473;48.800;9.002;2023-05-07T00:50:42;43.25;37.10;51.97;;
186;Laerm;55473;48.800;9.002;2023-05-07T00:53:08;42.80;37.21;55.59;;
186;Laerm;55473;48.800;9.002;2023-05-07T00:55:35;42.27;35.98;52.89;;
186;Laerm;55473;48.800;9.002;2023-05-07T00:58:02;43.93;36.47;63.48;;
186;Laerm;55473;48.800;9.002;2023-05-07T01:00:28;42.88;35.81;54.32;;
186;Laerm;55473;48.800;9.002;2023-05-07T01:02:54;42.52;35.47;53.58;;
186;Laerm;55473;48.800;9.002;2023-05-07T01:05:24;42.82;36.85;51.56;;
186;Laerm;55473;48.800;9.002;2023-05-07T01:07:53;42.92;36.67;58.32;;
186;Laerm;55473;48.800;9.002;2023-05-07T01:10:21;42.28;36.26;53.87;;
186;Laerm;55473;48.800;9.002;2023-05-07T01:12:49;42.61;35.52;52.54;;
186;Laerm;55473;48.800;9.002;2023-05-07T01:15:17;42.54;36.19;51.28;;
186;Laerm;55473;48.800;9.002;2023-05-07T01:17:44;45.74;36.29;55.20;;
186;Laerm;55473;48.800;9.002;2023-05-07T01:20:11;42.74;36.94;54.84;;
186;Laerm;55473;48.800;9.002;2023-05-07T01:22:38;42.58;36.46;53.13;;
186;Laerm;55473;48.800;9.002;2023-05-07T01:25:06;42.93;36.38;52.44;;
186;Laerm;55473;48.800;9.002;2023-05-07T01:27:35;42.88;36.21;56.10;;
186;Laerm;55473;48.800;9.002;2023-05-07T01:30:04;42.72;36.41;53.53;;
186;Laerm;55473;48.800;9.002;2023-05-07T01:32:56;43.18;36.57;53.10;;
186;Laerm;55473;48.800;9.002;2023-05-07T01:35:34;45.10;36.11;63.06;;
186;Laerm;55473;48.800;9.002;2023-05-07T01:38:03;43.05;36.47;51.90;;
186;Laerm;55473;48.800;9.002;2023-05-07T01:40:30;42.86;36.57;53.11;;
186;Laerm;55473;48.800;9.002;2023-05-07T01:42:56;44.70;36.77;57.56;;
186;Laerm;55473;48.800;9.002;2023-05-07T01:45:23;45.17;36.60;55.02;;
186;Laerm;55473;48.800;9.002;2023-05-07T01:47:52;43.14;36.05;53.59;;
186;Laerm;55473;48.800;9.002;2023-05-07T01:50:19;43.24;35.72;54.57;;
186;Laerm;55473;48.800;9.002;2023-05-07T01:52:49;43.00;36.00;53.77;;
186;Laerm;55473;48.800;9.002;2023-05-07T01:55:15;42.65;36.30;52.79;;
186;Laerm;55473;48.800;9.002;2023-05-07T01:57:41;43.14;36.44;53.41;;
186;Laerm;55473;48.800;9.002;2023-05-07T02:00:08;43.29;36.39;54.00;;
186;Laerm;55473;48.800;9.002;2023-05-07T02:02:35;43.10;35.51;53.22;;
186;Laerm;55473;48.800;9.002;2023-05-07T02:05:01;43.07;36.50;54.52;;
186;Laerm;55473;48.800;9.002;2023-05-07T02:07:28;43.22;36.70;53.56;;
186;Laerm;55473;48.800;9.002;2023-05-07T02:09:54;43.05;36.73;52.48;;
186;Laerm;55473;48.800;9.002;2023-05-07T02:12:22;43.03;36.34;53.61;;
186;Laerm;55473;48.800;9.002;2023-05-07T02:14:49;51.38;36.62;63.68;;
186;Laerm;55473;48.800;9.002;2023-05-07T02:17:15;44.80;37.09;55.02;;
186;Laerm;55473;48.800;9.002;2023-05-07T02:19:41;44.26;36.34;53.49;;
186;Laerm;55473;48.800;9.002;2023-05-07T02:22:07;43.08;35.79;53.88;;
186;Laerm;55473;48.800;9.002;2023-05-07T02:24:33;43.13;36.01;53.89;;
186;Laerm;55473;48.800;9.002;2023-05-07T02:26:59;42.66;35.49;52.77;;
186;Laerm;55473;48.800;9.002;2023-05-07T02:29:25;42.91;36.33;53.57;;
186;Laerm;55473;48.800;9.002;2023-05-07T02:31:54;43.39;36.54;53.84;;
186;Laerm;55473;48.800;9.002;2023-05-07T02:34:21;42.87;35.74;53.63;;
186;Laerm;55473;48.800;9.002;2023-05-07T02:36:47;42.92;36.36;51.66;;
186;Laerm;55473;48.800;9.002;2023-05-07T02:39:14;43.77;36.56;53.83;;
186;Laerm;55473;48.800;9.002;2023-05-07T02:41:41;43.49;36.54;55.84;;
186;Laerm;55473;48.800;9.002;2023-05-07T02:44:07;46.87;37.47;67.22;;
186;Laerm;55473;48.800;9.002;2023-05-07T02:46:32;45.97;36.49;62.50;;
186;Laerm;55473;48.800;9.002;2023-05-07T02:48:58;47.85;36.59;68.77;;
186;Laerm;55473;48.800;9.002;2023-05-07T02:51:26;57.75;36.45;73.50;;
186;Laerm;55473;48.800;9.002;2023-05-07T02:53:52;59.30;37.05;76.30;;
186;Laerm;55473;48.800;9.002;2023-05-07T02:56:18;59.47;36.65;76.11;;
186;Laerm;55473;48.800;9.002;2023-05-07T02:58:44;59.73;37.66;76.72;;
186;Laerm;55473;48.800;9.002;2023-05-07T03:01:10;55.02;38.59;73.18;;
186;Laerm;55473;48.800;9.002;2023-05-07T03:03:36;53.45;38.33;69.51;;
186;Laerm;55473;48.800;9.002;2023-05-07T03:06:02;56.06;39.22;71.02;;
186;Laerm;55473;48.800;9.002;2023-05-07T03:08:28;54.99;38.67;70.08;;
186;Laerm;55473;48.800;9.002;2023-05-07T03:10:54;55.38;39.63;74.41;;
186;Laerm;55473;48.800;9.002;2023-05-07T03:13:20;50.09;39.72;61.30;;
186;Laerm;55473;48.800;9.002;2023-05-07T03:15:45;52.63;40.05;68.40;;
186;Laerm;55473;48.800;9.002;2023-05-07T03:18:11;58.80;41.97;74.46;;
186;Laerm;55473;48.800;9.002;2023-05-07T03:20:37;55.66;41.44;71.99;;
186;Laerm;55473;48.800;9.002;2023-05-07T03:23:03;55.40;41.09;70.04;;
186;Laerm;55473;48.800;9.002;2023-05-07T03:25:29;57.01;42.13;68.70;;
186;Laerm;55473;48.800;9.002;2023-05-07T03:27:58;56.88;41.99;67.64;;
186;Laerm;55473;48.800;9.002;2023-05-07T03:30:24;56.35;41.80;67.66;;
186;Laerm;55473;48.800;9.002;2023-05-07T03:32:50;53.82;39.82;65.33;;
186;Laerm;55473;48.800;9.002;2023-05-07T03:35:16;54.19;41.16;68.80;;
186;Laerm;55473;48.800;9.002;2023-05-07T03:37:42;54.05;41.32;64.18;;
186;Laerm;55473;48.800;9.002;2023-05-07T03:40:08;54.15;40.94;65.61;;
186;Laerm;55473;48.800;9.002;2023-05-07T03:42:35;53.87;40.63;66.70;;
186;Laerm;55473;48.800;9.002;2023-05-07T03:45:02;54.87;38.95;69.49;;
186;Laerm;55473;48.800;9.002;2023-05-07T03:47:28;53.28;40.85;63.72;;
186;Laerm;55473;48.800;9.002;2023-05-07T03:49:53;53.12;40.73;64.53;;
186;Laerm;55473;48.800;9.002;2023-05-07T03:52:20;53.25;38.61;68.60;;
186;Laerm;55473;48.800;9.002;2023-05-07T03:54:50;53.75;37.35;67.56;;
186;Laerm;55473;48.800;9.002;2023-05-07T03:57:16;51.57;38.26;66.47;;
186;Laerm;55473;48.800;9.002;2023-05-07T03:59:41;50.81;37.33;67.26;;
186;Laerm;55473;48.800;9.002;2023-05-07T04:02:07;48.08;38.35;62.14;;
186;Laerm;55473;48.800;9.002;2023-05-07T04:04:33;49.77;37.56;63.57;;
186;Laerm;55473;48.800;9.002;2023-05-07T04:06:59;48.64;38.03;62.25;;
186;Laerm;55473;48.800;9.002;2023-05-07T04:09:26;49.01;37.85;64.35;;
186;Laerm;55473;48.800;9.002;2023-05-07T04:11:52;47.93;37.53;67.37;;
186;Laerm;55473;48.800;9.002;2023-05-07T04:14:18;45.27;37.34;59.49;;
186;Laerm;55473;48.800;9.002;2023-05-07T04:16:43;51.58;38.12;70.39;;
186;Laerm;55473;48.800;9.002;2023-05-07T04:19:09;54.35;38.23;68.46;;
186;Laerm;55473;48.800;9.002;2023-05-07T04:21:35;54.39;37.65;66.94;;
186;Laerm;55473;48.800;9.002;2023-05-07T04:24:03;56.03;35.69;70.16;;
186;Laerm;55473;48.800;9.002;2023-05-07T04:26:29;55.45;37.34;70.18;;
186;Laerm;55473;48.800;9.002;2023-05-07T04:28:55;55.21;38.69;68.27;;
186;Laerm;55473;48.800;9.002;2023-05-07T04:31:23;54.53;38.24;68.78;;
186;Laerm;55473;48.800;9.002;2023-05-07T04:33:49;55.02;37.86;68.38;;
186;Laerm;55473;48.800;9.002;2023-05-07T04:36:16;55.53;37.75;69.85;;
186;Laerm;55473;48.800;9.002;2023-05-07T04:38:42;55.44;38.35;70.28;;
186;Laerm;55473;48.800;9.002;2023-05-07T04:41:09;51.90;38.67;68.06;;
186;Laerm;55473;48.800;9.002;2023-05-07T04:43:35;50.44;37.50;64.10;;
186;Laerm;55473;48.800;9.002;2023-05-07T04:46:00;50.05;36.60;63.42;;
186;Laerm;55473;48.800;9.002;2023-05-07T04:48:26;51.97;38.44;63.40;;
186;Laerm;55473;48.800;9.002;2023-05-07T04:50:52;51.49;37.54;65.14;;
186;Laerm;55473;48.800;9.002;2023-05-07T04:53:19;51.32;38.41;63.23;;
186;Laerm;55473;48.800;9.002;2023-05-07T04:55:45;49.92;37.93;61.92;;
186;Laerm;55473;48.800;9.002;2023-05-07T04:58:12;54.43;38.20;72.06;;
186;Laerm;55473;48.800;9.002;2023-05-07T05:00:38;50.72;38.22;63.84;;
186;Laerm;55473;48.800;9.002;2023-05-07T05:03:06;50.75;37.90;63.35;;
186;Laerm;55473;48.800;9.002;2023-05-07T05:05:32;51.41;36.90;67.43;;
186;Laerm;55473;48.800;9.002;2023-05-07T05:07:58;48.18;37.20;63.55;;
186;Laerm;55473;48.800;9.002;2023-05-07T05:10:24;54.54;36.66;69.21;;
186;Laerm;55473;48.800;9.002;2023-05-07T05:12:51;53.53;38.14;67.93;;
186;Laerm;55473;48.800;9.002;2023-05-07T05:15:17;43.93;38.04;55.17;;
186;Laerm;55473;48.800;9.002;2023-05-07T05:17:43;54.03;38.81;66.96;;
186;Laerm;55473;48.800;9.002;2023-05-07T05:20:09;53.72;37.06;67.83;;
186;Laerm;55473;48.800;9.002;2023-05-07T05:22:36;53.14;38.96;68.84;;
186;Laerm;55473;48.800;9.002;2023-05-07T05:25:02;50.65;38.68;66.57;;
186;Laerm;55473;48.800;9.002;2023-05-07T05:27:28;47.68;37.57;60.53;;
186;Laerm;55473;48.800;9.002;2023-05-07T05:29:55;47.34;38.36;63.62;;
186;Laerm;55473;48.800;9.002;2023-05-07T05:32:21;46.07;37.73;57.80;;
186;Laerm;55473;48.800;9.002;2023-05-07T05:34:47;43.62;38.31;52.88;;
186;Laerm;55473;48.800;9.002;2023-05-07T05:37:13;46.54;37.88;64.83;;
186;Laerm;55473;48.800;9.002;2023-05-07T05:39:39;50.23;38.90;66.40;;
186;Laerm;55473;48.800;9.002;2023-05-07T05:42:05;53.18;38.14;68.51;;
186;Laerm;55473;48.800;9.002;2023-05-07T05:44:31;54.13;39.49;68.57;;
186;Laerm;55473;48.800;9.002;2023-05-07T05:46:57;54.52;38.87;68.16;;
186;Laerm;55473;48.800;9.002;2023-05-07T05:49:25;53.69;38.47;68.97;;
186;Laerm;55473;48.800;9.002;2023-05-07T05:51:51;45.30;38.47;62.88;;
186;Laerm;55473;48.800;9.002;2023-05-07T05:54:17;47.63;39.32;67.96;;
186;Laerm;55473;48.800;9.002;2023-05-07T05:56:43;49.86;39.26;71.01;;
186;Laerm;55473;48.800;9.002;2023-05-07T05:59:10;50.37;40.18;63.74;;
186;Laerm;55473;48.800;9.002;2023-05-07T06:01:36;54.13;37.85;70.08;;
186;Laerm;55473;48.800;9.002;2023-05-07T06:04:02;52.25;37.47;74.05;;
186;Laerm;55473;48.800;9.002;2023-05-07T06:06:28;48.25;37.99;62.87;;
186;Laerm;55473;48.800;9.002;2023-05-07T06:08:53;47.17;37.76;64.70;;
186;Laerm;55473;48.800;9.002;2023-05-07T06:11:20;44.72;38.02;63.27;;
186;Laerm;55473;48.800;9.002;2023-05-07T06:13:46;43.73;37.31;55.52;;
186;Laerm;55473;48.800;9.002;2023-05-07T06:16:11;43.89;36.84;52.05;;
186;Laerm;55473;48.800;9.002;2023-05-07T06:18:37;44.75;37.67;54.98;;
186;Laerm;55473;48.800;9.002;2023-05-07T06:21:03;43.32;37.14;52.93;;
186;Laerm;55473;48.800;9.002;2023-05-07T06:23:29;49.31;36.66;68.49;;
186;Laerm;55473;48.800;9.002;2023-05-07T06:25:55;48.63;37.63;62.02;;
186;Laerm;55473;48.800;9.002;2023-05-07T06:28:21;51.62;36.96;68.43;;
186;Laerm;55473;48.800;9.002;2023-05-07T06:30:47;48.95;37.20;66.02;;
186;Laerm;55473;48.800;9.002;2023-05-07T06:33:15;52.77;37.91;67.03;;
186;Laerm;55473;48.800;9.002;2023-05-07T06:35:41;54.08;38.07;69.33;;
186;Laerm;55473;48.800;9.002;2023-05-07T06:38:07;54.16;38.31;67.41;;
186;Laerm;55473;48.800;9.002;2023-05-07T06:40:33;52.72;37.03;67.11;;
186;Laerm;55473;48.800;9.002;2023-05-07T06:42:59;52.46;36.97;67.53;;
186;Laerm;55473;48.800;9.002;2023-05-07T06:45:25;45.65;38.22;57.92;;
186;Laerm;55473;48.800;9.002;2023-05-07T06:47:51;53.03;38.76;64.64;;
186;Laerm;55473;48.800;9.002;2023-05-07T06:50:18;45.40;37.43;58.69;;
186;Laerm;55473;48.800;9.002;2023-05-07T06:52:44;42.96;37.19;54.55;;
186;Laerm;55473;48.800;9.002;2023-05-07T06:55:10;44.33;36.57;59.66;;
186;Laerm;55473;48.800;9.002;2023-05-07T06:57:37;43.85;36.37;55.66;;
186;Laerm;55473;48.800;9.002;2023-05-07T07:00:05;44.63;35.86;54.87;;
186;Laerm;55473;48.800;9.002;2023-05-07T07:02:32;44.98;37.56;57.32;;
186;Laerm;55473;48.800;9.002;2023-05-07T07:04:58;52.65;38.42;68.33;;
186;Laerm;55473;48.800;9.002;2023-05-07T07:07:24;54.68;39.15;67.89;;
186;Laerm;55473;48.800;9.002;2023-05-07T07:09:50;54.96;37.11;68.75;;
186;Laerm;55473;48.800;9.002;2023-05-07T07:12:17;53.78;36.34;69.68;;
186;Laerm;55473;48.800;9.002;2023-05-07T07:14:42;53.14;37.94;68.09;;
186;Laerm;55473;48.800;9.002;2023-05-07T07:17:08;52.82;36.68;68.73;;
186;Laerm;55473;48.800;9.002;2023-05-07T07:19:35;54.18;37.72;66.93;;
186;Laerm;55473;48.800;9.002;2023-05-07T07:22:01;53.63;36.51;66.91;;
186;Laerm;55473;48.800;9.002;2023-05-07T07:24:26;53.30;36.41;66.93;;
186;Laerm;55473;48.800;9.002;2023-05-07T07:26:52;52.87;38.22;67.26;;
186;Laerm;55473;48.800;9.002;2023-05-07T07:29:20;52.72;36.73;66.99;;
186;Laerm;55473;48.800;9.002;2023-05-07T07:31:48;52.17;38.96;69.02;;
186;Laerm;55473;48.800;9.002;2023-05-07T07:34:15;52.81;42.38;64.62;;
186;Laerm;55473;48.800;9.002;2023-05-07T07:36:41;52.52;38.92;68.21;;
186;Laerm;55473;48.800;9.002;2023-05-07T07:39:07;53.19;37.53;68.30;;
186;Laerm;55473;48.800;9.002;2023-05-07T07:41:33;52.54;38.85;70.12;;
186;Laerm;55473;48.800;9.002;2023-05-07T07:43:58;54.02;38.95;68.64;;
186;Laerm;55473;48.800;9.002;2023-05-07T07:46:24;53.68;38.62;71.36;;
186;Laerm;55473;48.800;9.002;2023-05-07T07:48:52;52.89;39.93;72.81;;
186;Laerm;55473;48.800;9.002;2023-05-07T07:51:18;51.38;36.89;68.42;;
186;Laerm;55473;48.800;9.002;2023-05-07T07:53:43;49.92;38.02;69.76;;
186;Laerm;55473;48.800;9.002;2023-05-07T07:56:09;52.06;43.06;65.64;;
186;Laerm;55473;48.800;9.002;2023-05-07T07:58:35;52.14;46.44;58.29;;
186;Laerm;55473;48.800;9.002;2023-05-07T08:01:03;48.13;37.79;56.16;;
186;Laerm;55473;48.800;9.002;2023-05-07T08:03:29;42.35;37.03;54.66;;
186;Laerm;55473;48.800;9.002;2023-05-07T08:05:57;42.30;36.07;54.61;;
186;Laerm;55473;48.800;9.002;2023-05-07T08:08:23;46.62;37.83;60.47;;
186;Laerm;55473;48.800;9.002;2023-05-07T08:10:49;47.91;37.50;63.71;;
186;Laerm;55473;48.800;9.002;2023-05-07T08:13:17;52.29;38.38;66.99;;
186;Laerm;55473;48.800;9.002;2023-05-07T08:15:43;49.65;37.99;67.50;;
186;Laerm;55473;48.800;9.002;2023-05-07T08:18:09;49.00;39.04;62.81;;
186;Laerm;55473;48.800;9.002;2023-05-07T08:20:36;51.56;37.13;67.40;;
186;Laerm;55473;48.800;9.002;2023-05-07T08:23:05;55.94;37.43;69.38;;
186;Laerm;55473;48.800;9.002;2023-05-07T08:25:34;53.07;38.06;69.48;;
186;Laerm;55473;48.800;9.002;2023-05-07T08:28:01;52.67;37.49;67.97;;
186;Laerm;55473;48.800;9.002;2023-05-07T08:30:27;51.52;36.53;67.06;;
186;Laerm;55473;48.800;9.002;2023-05-07T08:32:53;51.89;36.21;67.12;;
186;Laerm;55473;48.800;9.002;2023-05-07T08:35:19;52.62;36.18;66.98;;
186;Laerm;55473;48.800;9.002;2023-05-07T08:37:45;51.71;37.23;69.05;;
186;Laerm;55473;48.800;9.002;2023-05-07T08:40:11;48.98;37.43;63.44;;
186;Laerm;55473;48.800;9.002;2023-05-07T08:42:37;47.21;37.23;62.69;;
186;Laerm;55473;48.800;9.002;2023-05-07T08:45:09;46.52;38.18;59.86;;
186;Laerm;55473;48.800;9.002;2023-05-07T08:47:44;46.76;38.55;61.97;;
186;Laerm;55473;48.800;9.002;2023-05-07T08:50:13;46.57;37.99;58.09;;
186;Laerm;55473;48.800;9.002;2023-05-07T08:52:40;48.59;37.61;64.65;;
186;Laerm;55473;48.800;9.002;2023-05-07T08:55:09;53.43;37.36;67.49;;
186;Laerm;55473;48.800;9.002;2023-05-07T08:57:35;53.14;36.85;69.54;;
186;Laerm;55473;48.800;9.002;2023-05-07T09:00:03;50.71;37.83;66.35;;
186;Laerm;55473;48.800;9.002;2023-05-07T09:02:30;50.68;37.50;65.76;;
186;Laerm;55473;48.800;9.002;2023-05-07T09:04:56;51.65;36.91;67.81;;
186;Laerm;55473;48.800;9.002;2023-05-07T09:07:22;53.46;38.10;70.65;;
186;Laerm;55473;48.800;9.002;2023-05-07T09:09:48;52.84;37.58;67.60;;
186;Laerm;55473;48.800;9.002;2023-05-07T09:12:14;54.26;37.25;70.61;;
186;Laerm;55473;48.800;9.002;2023-05-07T09:14:40;54.73;38.12;68.46;;
186;Laerm;55473;48.800;9.002;2023-05-07T09:17:06;54.22;37.51;67.67;;
186;Laerm;55473;48.800;9.002;2023-05-07T09:19:31;53.41;37.99;70.20;;
186;Laerm;55473;48.800;9.002;2023-05-07T09:22:03;52.49;37.33;69.31;;
186;Laerm;55473;48.800;9.002;2023-05-07T09:24:30;52.94;37.45;72.64;;
186;Laerm;55473;48.800;9.002;2023-05-07T09:27:01;53.74;37.36;74.73;;
186;Laerm;55473;48.800;9.002;2023-05-07T09:29:28;49.38;37.07;64.38;;
186;Laerm;55473;48.800;9.002;2023-05-07T09:32:05;50.18;36.58;64.40;;
186;Laerm;55473;48.800;9.002;2023-05-07T09:34:31;48.56;37.37;68.07;;
186;Laerm;55473;48.800;9.002;2023-05-07T09:37:02;51.10;37.86;64.18;;
186;Laerm;55473;48.800;9.002;2023-05-07T09:39:43;48.48;36.90;64.78;;
186;Laerm;55473;48.800;9.002;2023-05-07T09:42:10;49.58;36.96;65.59;;
186;Laerm;55473;48.800;9.002;2023-05-07T09:44:38;52.66;39.04;68.40;;
186;Laerm;55473;48.800;9.002;2023-05-07T09:47:05;51.09;37.17;66.34;;
186;Laerm;55473;48.800;9.002;2023-05-07T09:49:37;51.09;38.47;65.77;;
186;Laerm;55473;48.800;9.002;2023-05-07T09:52:06;48.25;38.21;64.34;;
186;Laerm;55473;48.800;9.002;2023-05-07T09:54:35;56.07;39.60;69.48;;
186;Laerm;55473;48.800;9.002;2023-05-07T09:57:05;43.87;38.51;58.64;;
186;Laerm;55473;48.800;9.002;2023-05-07T09:59:33;46.26;37.52;66.20;;
186;Laerm;55473;48.800;9.002;2023-05-07T10:02:01;46.85;38.16;65.21;;
186;Laerm;55473;48.800;9.002;2023-05-07T10:04:27;51.23;39.94;74.76;;
186;Laerm;55473;48.800;9.002;2023-05-07T10:06:54;48.79;37.69;69.77;;
186;Laerm;55473;48.800;9.002;2023-05-07T10:09:21;46.08;37.58;66.06;;
186;Laerm;55473;48.800;9.002;2023-05-07T10:11:51;47.22;37.81;70.43;;
186;Laerm;55473;48.800;9.002;2023-05-07T10:14:21;45.87;37.09;58.14;;
186;Laerm;55473;48.800;9.002;2023-05-07T10:16:48;51.58;37.10;68.91;;
186;Laerm;55473;48.800;9.002;2023-05-07T10:19:14;53.59;39.23;69.44;;
186;Laerm;55473;48.800;9.002;2023-05-07T10:21:53;47.62;38.09;62.13;;
186;Laerm;55473;48.800;9.002;2023-05-07T10:24:33;49.66;37.17;63.89;;
186;Laerm;55473;48.800;9.002;2023-05-07T10:27:09;49.92;37.63;64.92;;
186;Laerm;55473;48.800;9.002;2023-05-07T10:32:50;53.17;37.38;68.01;;
186;Laerm;55473;48.800;9.002;2023-05-07T10:35:26;53.42;38.38;67.71;;
186;Laerm;55473;48.800;9.002;2023-05-07T10:37:55;54.42;39.12;67.48;;
186;Laerm;55473;48.800;9.002;2023-05-07T10:40:21;53.68;38.37;68.61;;
186;Laerm;55473;48.800;9.002;2023-05-07T10:42:58;52.37;39.26;66.68;;
186;Laerm;55473;48.800;9.002;2023-05-07T10:45:29;52.76;38.04;66.63;;
186;Laerm;55473;48.800;9.002;2023-05-07T10:48:14;53.17;38.93;66.08;;
186;Laerm;55473;48.800;9.002;2023-05-07T10:50:43;52.44;39.39;67.04;;
186;Laerm;55473;48.800;9.002;2023-05-07T10:58:25;47.30;37.80;62.73;;
186;Laerm;55473;48.800;9.002;2023-05-07T11:01:02;50.03;39.02;65.10;;
186;Laerm;55473;48.800;9.002;2023-05-07T11:03:29;46.61;37.61;62.46;;
186;Laerm;55473;48.800;9.002;2023-05-07T11:06:16;48.08;37.53;67.21;;
186;Laerm;55473;48.800;9.002;2023-05-07T11:08:58;50.30;37.72;67.53;;
186;Laerm;55473;48.800;9.002;2023-05-07T11:11:49;54.04;36.92;68.16;;
186;Laerm;55473;48.800;9.002;2023-05-07T11:14:44;54.54;40.46;68.29;;
186;Laerm;55473;48.800;9.002;2023-05-07T11:17:11;54.27;38.65;67.91;;
186;Laerm;55473;48.800;9.002;2023-05-07T11:19:56;50.33;37.99;66.01;;
186;Laerm;55473;48.800;9.002;2023-05-07T11:24:59;49.86;38.63;68.15;;
186;Laerm;55473;48.800;9.002;2023-05-07T11:27:26;51.39;39.92;64.14;;
186;Laerm;55473;48.800;9.002;2023-05-07T11:29:53;52.20;40.56;71.87;;
186;Laerm;55473;48.800;9.002;2023-05-07T11:32:31;54.05;39.11;66.87;;
186;Laerm;55473;48.800;9.002;2023-05-07T11:34:59;56.35;38.26;82.82;;
186;Laerm;55473;48.800;9.002;2023-05-07T11:37:27;51.59;38.59;73.14;;
186;Laerm;55473;48.800;9.002;2023-05-07T11:40:06;54.09;36.74;77.48;;
186;Laerm;55473;48.800;9.002;2023-05-07T11:42:37;55.14;37.80;75.39;;
186;Laerm;55473;48.800;9.002;2023-05-07T11:45:04;54.56;40.87;66.65;;
186;Laerm;55473;48.800;9.002;2023-05-07T11:47:33;55.59;42.17;69.77;;
186;Laerm;55473;48.800;9.002;2023-05-07T11:50:06;57.20;39.98;71.90;;
186;Laerm;55473;48.800;9.002;2023-05-07T11:52:33;55.26;44.09;67.98;;
186;Laerm;55473;48.800;9.002;2023-05-07T11:55:01;55.87;42.88;69.74;;
186;Laerm;55473;48.800;9.002;2023-05-07T11:57:27;54.83;43.18;70.19;;
186;Laerm;55473;48.800;9.002;2023-05-07T11:59:58;55.08;42.57;70.47;;
186;Laerm;55473;48.800;9.002;2023-05-07T12:02:25;55.24;43.19;69.34;;
186;Laerm;55473;48.800;9.002;2023-05-07T12:04:52;54.16;42.84;65.48;;
186;Laerm;55473;48.800;9.002;2023-05-07T12:07:18;55.01;41.85;68.24;;
186;Laerm;55473;48.800;9.002;2023-05-07T12:09:45;54.78;41.30;71.13;;
186;Laerm;55473;48.800;9.002;2023-05-07T12:12:12;52.77;42.26;65.35;;
186;Laerm;55473;48.800;9.002;2023-05-07T12:14:41;53.92;40.95;69.64;;
186;Laerm;55473;48.800;9.002;2023-05-07T12:17:09;58.29;44.09;81.48;;
186;Laerm;55473;48.800;9.002;2023-05-07T12:19:39;54.74;42.11;67.29;;
186;Laerm;55473;48.800;9.002;2023-05-07T12:22:08;51.93;41.00;69.37;;
186;Laerm;55473;48.800;9.002;2023-05-07T12:24:57;59.23;44.84;80.13;;
186;Laerm;55473;48.800;9.002;2023-05-07T12:27:25;62.21;49.51;79.72;;
186;Laerm;55473;48.800;9.002;2023-05-07T12:29:51;55.48;47.94;73.02;;
186;Laerm;55473;48.800;9.002;2023-05-07T12:32:20;56.24;49.12;74.24;;
186;Laerm;55473;48.800;9.002;2023-05-07T12:34:50;67.99;55.91;81.20;;
186;Laerm;55473;48.800;9.002;2023-05-07T12:37:16;61.55;52.75;76.53;;
186;Laerm;55473;48.800;9.002;2023-05-07T12:39:49;54.42;49.09;68.38;;
186;Laerm;55473;48.800;9.002;2023-05-07T12:42:18;53.57;44.29;67.35;;
186;Laerm;55473;48.800;9.002;2023-05-07T12:44:46;54.84;45.82;72.12;;
186;Laerm;55473;48.800;9.002;2023-05-07T12:47:12;53.89;43.74;70.29;;
186;Laerm;55473;48.800;9.002;2023-05-07T12:49:38;53.19;43.09;69.20;;
186;Laerm;55473;48.800;9.002;2023-05-07T12:52:06;51.96;42.17;66.11;;
186;Laerm;55473;48.800;9.002;2023-05-07T12:54:35;51.51;42.10;68.23;;
186;Laerm;55473;48.800;9.002;2023-05-07T12:57:08;52.94;41.83;68.30;;
186;Laerm;55473;48.800;9.002;2023-05-07T12:59:40;54.51;45.17;67.23;;
186;Laerm;55473;48.800;9.002;2023-05-07T13:02:08;56.03;49.55;69.64;;
186;Laerm;55473;48.800;9.002;2023-05-07T13:04:35;56.39;49.30;72.67;;
186;Laerm;55473;48.800;9.002;2023-05-07T13:07:02;56.58;52.63;70.70;;
186;Laerm;55473;48.800;9.002;2023-05-07T13:09:28;54.82;46.76;69.12;;
186;Laerm;55473;48.800;9.002;2023-05-07T13:11:55;51.25;44.47;67.69;;
186;Laerm;55473;48.800;9.002;2023-05-07T13:14:21;52.35;44.06;66.80;;
186;Laerm;55473;48.800;9.002;2023-05-07T13:16:47;51.90;43.31;66.84;;
186;Laerm;55473;48.800;9.002;2023-05-07T13:19:13;51.36;43.12;71.30;;
186;Laerm;55473;48.800;9.002;2023-05-07T13:21:39;47.34;42.68;64.13;;
186;Laerm;55473;48.800;9.002;2023-05-07T13:24:06;46.76;41.68;59.84;;
186;Laerm;55473;48.800;9.002;2023-05-07T13:26:32;46.85;41.62;56.12;;
186;Laerm;55473;48.800;9.002;2023-05-07T13:28:58;47.49;41.99;61.81;;
186;Laerm;55473;48.800;9.002;2023-05-07T13:31:24;47.16;41.41;59.95;;
186;Laerm;55473;48.800;9.002;2023-05-07T13:33:50;46.82;42.60;61.08;;
186;Laerm;55473;48.800;9.002;2023-05-07T13:36:16;46.52;41.68;55.14;;
186;Laerm;55473;48.800;9.002;2023-05-07T13:38:42;46.16;40.94;55.35;;
186;Laerm;55473;48.800;9.002;2023-05-07T13:41:08;46.42;41.51;59.95;;
186;Laerm;55473;48.800;9.002;2023-05-07T13:43:34;48.65;41.90;63.10;;
186;Laerm;55473;48.800;9.002;2023-05-07T13:46:00;51.93;42.88;67.46;;
186;Laerm;55473;48.800;9.002;2023-05-07T13:48:26;53.16;40.68;67.03;;
186;Laerm;55473;48.800;9.002;2023-05-07T13:50:54;53.96;40.77;71.30;;
186;Laerm;55473;48.800;9.002;2023-05-07T13:53:19;50.40;41.21;66.40;;
186;Laerm;55473;48.800;9.002;2023-05-07T13:55:45;49.59;41.10;64.48;;
186;Laerm;55473;48.800;9.002;2023-05-07T13:58:12;48.90;40.46;70.07;;
186;Laerm;55473;48.800;9.002;2023-05-07T14:00:38;45.77;39.97;66.07;;
186;Laerm;55473;48.800;9.002;2023-05-07T14:03:05;45.63;39.86;68.86;;
186;Laerm;55473;48.800;9.002;2023-05-07T14:05:31;47.91;40.43;60.46;;
186;Laerm;55473;48.800;9.002;2023-05-07T14:07:58;49.99;39.51;66.97;;
186;Laerm;55473;48.800;9.002;2023-05-07T14:10:24;45.69;40.49;55.45;;
186;Laerm;55473;48.800;9.002;2023-05-07T14:12:50;46.83;40.91;64.18;;
186;Laerm;55473;48.800;9.002;2023-05-07T14:15:16;48.81;43.53;58.91;;
186;Laerm;55473;48.800;9.002;2023-05-07T14:17:43;50.52;43.14;63.40;;
186;Laerm;55473;48.800;9.002;2023-05-07T14:20:11;50.65;42.97;66.52;;
186;Laerm;55473;48.800;9.002;2023-05-07T14:22:37;51.11;44.10;66.71;;